createdAt,value
2024-05-09T00:02:20.659Z,8.90
2024-05-09T00:04:50.527Z,9.00
2024-05-09T00:07:23.359Z,9.00
2024-05-09T00:09:53.136Z,9.00
2024-05-09T00:12:23.163Z,9.00
2024-05-09T00:14:52.954Z,8.90
2024-05-09T00:17:22.867Z,8.70
2024-05-09T00:19:52.769Z,8.80
2024-05-09T00:22:25.185Z,8.70
2024-05-09T00:24:54.939Z,8.70
2024-05-09T00:27:25.371Z,8.50
2024-05-09T00:29:55.150Z,8.60
2024-05-09T00:32:25.038Z,8.50
2024-05-09T00:34:55.105Z,8.30
2024-05-09T00:37:27.756Z,8.40
2024-05-09T00:39:57.525Z,8.30
2024-05-09T00:42:27.320Z,8.30
2024-05-09T00:44:57.095Z,8.20
2024-05-09T00:47:27.313Z,8.40
2024-05-09T00:49:57.276Z,8.10
2024-05-09T00:52:30.514Z,7.90
2024-05-09T00:55:00.800Z,8.00
2024-05-09T00:57:30.915Z,8.00
2024-05-09T01:00:01.727Z,7.90
2024-05-09T01:02:32.560Z,7.90
2024-05-09T01:05:04.751Z,7.80
2024-05-09T01:07:37.318Z,7.80
2024-05-09T01:10:17.384Z,8.00
2024-05-09T01:12:51.158Z,7.70
2024-05-09T01:15:20.901Z,7.80
2024-05-09T01:17:51.600Z,7.80
2024-05-09T01:20:31.762Z,7.50
2024-05-09T01:23:14.127Z,7.50
2024-05-09T01:25:46.559Z,7.50
2024-05-09T01:28:16.836Z,7.50
2024-05-09T01:30:46.637Z,7.50
2024-05-09T01:33:16.671Z,7.40
2024-05-09T01:35:46.553Z,7.40
2024-05-09T01:38:19.921Z,7.40
2024-05-09T01:40:50.759Z,7.30
2024-05-09T01:43:20.571Z,7.30
2024-05-09T01:45:50.384Z,7.30
2024-05-09T01:48:20.465Z,7.30
2024-05-09T01:50:50.306Z,7.10
2024-05-09T01:53:22.873Z,7.10
2024-05-09T01:55:52.797Z,6.90
2024-05-09T01:58:22.555Z,7.00
2024-05-09T02:00:52.415Z,7.70
2024-05-09T02:03:22.439Z,6.90
2024-05-09T02:05:52.579Z,6.90
2024-05-09T02:08:25.164Z,6.90
2024-05-09T02:10:55.122Z,6.90
2024-05-09T02:13:25.027Z,7.30
2024-05-09T02:15:55.537Z,7.00
2024-05-09T02:18:25.594Z,6.80
2024-05-09T02:20:55.594Z,6.60
2024-05-09T02:23:28.213Z,7.10
2024-05-09T02:25:58.070Z,7.60
2024-05-09T02:28:27.851Z,6.70
2024-05-09T02:30:57.891Z,7.50
2024-05-09T02:33:28.054Z,6.70
2024-05-09T02:35:58.049Z,6.40
2024-05-09T02:38:27.885Z,6.70
2024-05-09T02:40:57.744Z,6.40
2024-05-09T02:43:24.980Z,6.40
2024-05-09T02:45:54.745Z,6.40
2024-05-09T02:48:22.154Z,7.50
2024-05-09T02:50:52.162Z,6.40
2024-05-09T02:53:19.862Z,6.50
2024-05-09T02:55:52.414Z,6.40
2024-05-09T02:58:19.669Z,6.20
2024-05-09T03:00:49.628Z,7.10
2024-05-09T03:03:17.074Z,6.30
2024-05-09T03:05:47.330Z,6.30
2024-05-09T03:08:14.733Z,6.30
2024-05-09T03:10:44.891Z,6.20
2024-05-09T03:13:15.967Z,6.30
2024-05-09T03:15:46.524Z,6.40
2024-05-09T03:18:14.089Z,6.80
2024-05-09T03:20:44.782Z,6.20
2024-05-09T03:23:12.408Z,6.20
2024-05-09T03:25:42.308Z,7.10
2024-05-09T03:28:09.479Z,6.10
2024-05-09T03:30:43.236Z,6.10
2024-05-09T03:33:11.228Z,6.10
2024-05-09T03:35:41.475Z,6.10
2024-05-09T03:38:11.741Z,7.10
2024-05-09T03:40:47.806Z,6.20
2024-05-09T03:43:18.480Z,6.80
2024-05-09T03:45:52.349Z,6.30
2024-05-09T03:48:19.776Z,6.00
2024-05-09T03:50:50.662Z,6.00
2024-05-09T03:53:17.980Z,6.00
2024-05-09T03:55:47.914Z,6.00
2024-05-09T03:58:15.114Z,6.00
2024-05-09T04:00:44.991Z,6.00
2024-05-09T04:03:15.585Z,6.00
2024-05-09T04:05:45.997Z,6.00
2024-05-09T04:08:14.382Z,6.10
2024-05-09T04:10:44.769Z,6.50
2024-05-09T04:13:12.129Z,6.20
2024-05-09T04:15:42.051Z,6.00
2024-05-09T04:18:09.586Z,6.20
2024-05-09T04:20:42.259Z,6.10
2024-05-09T04:23:12.852Z,6.20
2024-05-09T04:25:45.815Z,6.40
2024-05-09T04:28:13.379Z,7.20
2024-05-09T04:30:43.535Z,6.40
2024-05-09T04:33:13.304Z,6.50
2024-05-09T04:35:48.836Z,7.10
2024-05-09T04:38:16.231Z,7.30
2024-05-09T04:40:46.313Z,6.80
2024-05-09T04:43:18.820Z,6.80
2024-05-09T04:45:48.855Z,6.90
2024-05-09T04:48:16.676Z,7.00
2024-05-09T04:50:49.686Z,7.00
2024-05-09T04:53:17.813Z,7.20
2024-05-09T04:55:47.897Z,7.30
2024-05-09T04:58:15.123Z,7.60
2024-05-09T05:00:44.933Z,7.60
2024-05-09T08:05:10.224Z,22.60
2024-05-09T08:07:39.408Z,22.70
2024-05-09T08:10:12.884Z,22.80
2024-05-09T08:12:42.447Z,22.80
2024-05-09T08:15:12.279Z,22.80
2024-05-09T08:17:39.562Z,22.80
2024-05-09T08:20:15.935Z,22.60
2024-05-09T08:22:46.265Z,22.60
2024-05-09T08:25:16.360Z,22.70
2024-05-09T08:27:43.669Z,22.90
2024-05-09T08:30:21.741Z,22.70
2024-05-09T08:32:56.446Z,22.70
2024-05-09T08:35:29.040Z,22.70
2024-05-09T08:37:56.347Z,22.90
2024-05-09T08:40:34.050Z,23.00
2024-05-09T08:43:07.490Z,22.70
2024-05-09T08:45:38.874Z,22.90
2024-05-09T08:48:08.844Z,23.20
2024-05-09T08:50:44.776Z,23.60
2024-05-09T08:53:14.419Z,24.00
2024-05-09T08:55:44.726Z,24.20
2024-05-09T08:58:19.230Z,24.30
2024-05-09T09:00:50.029Z,24.50
2024-05-09T09:03:19.582Z,24.30
2024-05-09T09:05:59.379Z,24.40
2024-05-09T09:08:26.641Z,24.60
2024-05-09T09:10:59.127Z,24.70
2024-05-09T09:13:26.506Z,24.90
2024-05-09T09:15:58.875Z,25.20
2024-05-09T09:18:27.630Z,25.20
2024-05-09T09:21:00.299Z,25.30
2024-05-09T09:23:29.721Z,25.40
2024-05-09T09:26:02.168Z,25.40
2024-05-09T09:28:29.733Z,25.50
2024-05-09T09:34:09.437Z,25.80
2024-05-09T09:36:44.911Z,25.60
2024-05-09T09:39:17.078Z,25.60
2024-05-09T09:41:49.626Z,25.70
2024-05-09T09:44:19.036Z,25.80
2024-05-09T09:46:49.552Z,25.90
2024-05-09T09:49:18.434Z,25.80
2024-05-09T09:51:52.025Z,25.80
2024-05-09T09:54:20.094Z,25.90
2024-05-09T09:56:50.589Z,25.90
2024-05-09T09:59:18.027Z,25.90
2024-05-09T10:01:48.698Z,25.90
2024-05-09T10:04:18.764Z,25.80
2024-05-09T10:06:54.597Z,25.90
2024-05-09T10:09:22.681Z,25.90
2024-05-09T10:11:59.847Z,25.80
2024-05-09T10:14:30.871Z,25.60
2024-05-09T10:17:08.223Z,25.70
2024-05-09T10:19:35.552Z,25.80
2024-05-09T10:22:08.896Z,25.90
2024-05-09T10:24:47.700Z,26.10
2024-05-09T10:27:17.851Z,26.10
2024-05-09T10:29:55.385Z,25.90
2024-05-09T10:32:25.301Z,25.90
2024-05-09T10:35:05.476Z,25.70
2024-05-09T10:37:38.334Z,26.00
2024-05-09T10:40:13.970Z,26.00
2024-05-09T10:42:47.603Z,25.90
2024-05-09T10:45:16.565Z,25.80
2024-05-09T10:47:46.534Z,26.10
2024-05-09T10:50:22.237Z,26.20
2024-05-09T10:53:00.613Z,26.10
2024-05-09T10:55:27.884Z,26.00
2024-05-09T10:57:57.699Z,26.10
2024-05-09T11:00:35.676Z,26.30
2024-05-09T11:03:06.658Z,26.60
2024-05-09T11:05:34.894Z,26.60
2024-05-09T11:08:08.248Z,26.60
2024-05-09T11:10:35.766Z,26.70
2024-05-09T11:13:05.690Z,26.60
2024-05-09T11:15:42.491Z,26.30
2024-05-09T11:18:25.530Z,26.00
2024-05-09T11:20:55.157Z,25.70
2024-05-09T11:23:30.361Z,25.60
2024-05-09T11:25:58.784Z,25.60
2024-05-09T11:28:31.031Z,25.50
2024-05-09T11:31:06.767Z,25.60
2024-05-09T11:33:40.042Z,25.70
2024-05-09T11:36:08.133Z,25.80
2024-05-09T11:38:40.643Z,25.80
2024-05-09T11:41:08.069Z,26.10
2024-05-09T11:43:37.878Z,26.20
2024-05-09T11:46:05.504Z,26.10
2024-05-09T11:48:35.647Z,26.20
2024-05-09T11:51:02.919Z,26.20
2024-05-09T11:53:32.744Z,26.00
2024-05-09T11:56:02.818Z,25.50
2024-05-09T11:58:34.526Z,25.20
2024-05-09T12:01:02.111Z,25.30
2024-05-09T12:03:32.493Z,25.50
2024-05-09T12:06:00.011Z,25.70
2024-05-09T12:08:30.105Z,26.10
2024-05-09T12:10:57.492Z,26.40
2024-05-09T12:13:30.058Z,26.50
2024-05-09T12:15:57.322Z,26.60
2024-05-09T12:18:27.175Z,26.40
2024-05-09T12:20:54.358Z,26.40
2024-05-09T12:23:24.166Z,26.20
2024-05-09T12:25:51.472Z,26.00
2024-05-09T12:28:21.725Z,25.90
2024-05-09T12:30:51.943Z,25.90
2024-05-09T12:33:22.539Z,25.80
2024-05-09T12:35:51.113Z,25.70
2024-05-09T12:38:21.390Z,25.30
2024-05-09T12:40:48.634Z,25.20
2024-05-09T12:43:18.570Z,25.10
2024-05-09T12:45:45.943Z,24.90
2024-05-09T12:48:18.524Z,24.50
2024-05-09T12:50:45.905Z,24.30
2024-05-09T12:53:15.875Z,24.10
2024-05-09T12:55:52.794Z,24.10
2024-05-09T12:58:26.607Z,23.90
2024-05-09T13:00:54.120Z,23.80
2024-05-09T13:03:26.879Z,23.70
2024-05-09T13:05:54.623Z,23.60
2024-05-09T13:08:24.653Z,23.70
2024-05-09T13:10:52.120Z,23.40
2024-05-09T13:13:22.013Z,23.30
2024-05-09T13:15:50.350Z,23.20
2024-05-09T13:18:20.359Z,22.90
2024-05-09T13:20:50.213Z,23.00
2024-05-09T13:23:20.072Z,22.80
2024-05-09T13:25:47.294Z,22.70
2024-05-09T13:28:17.372Z,22.40
2024-05-09T13:30:44.709Z,22.60
2024-05-09T13:33:15.369Z,22.60
2024-05-09T13:35:47.260Z,22.40
2024-05-09T13:38:23.226Z,22.40
2024-05-09T13:40:50.888Z,22.50
2024-05-09T13:43:21.824Z,22.50
2024-05-09T13:45:49.641Z,22.60
2024-05-09T13:48:20.004Z,25.20
2024-05-09T13:50:47.559Z,21.80
2024-05-09T13:53:17.721Z,20.80
2024-05-09T13:55:48.403Z,21.80
2024-05-09T13:58:18.535Z,21.90
2024-05-09T14:00:49.568Z,21.90
2024-05-09T14:03:32.921Z,25.20
2024-05-09T14:06:15.348Z,19.90
2024-05-09T14:08:45.417Z,23.90
2024-05-09T14:11:15.416Z,21.70
2024-05-09T14:13:45.448Z,21.60
2024-05-09T14:16:12.836Z,20.10
2024-05-09T14:18:42.878Z,22.40
2024-05-09T14:21:10.173Z,21.70
2024-05-09T14:23:40.022Z,21.70
2024-05-09T14:26:07.244Z,21.70
2024-05-09T14:28:39.724Z,21.90
2024-05-09T14:31:06.947Z,21.90
2024-05-09T14:33:37.137Z,22.20
2024-05-09T14:36:04.817Z,22.40
2024-05-09T14:38:34.711Z,22.60
2024-05-09T14:41:01.982Z,22.70
2024-05-09T14:43:33.846Z,22.70
2024-05-09T14:46:04.129Z,22.30
2024-05-09T14:48:34.208Z,22.20
2024-05-09T14:51:01.470Z,22.30
2024-05-09T14:53:31.276Z,22.70
2024-05-09T14:55:58.547Z,22.60
2024-05-09T14:58:29.175Z,22.60
2024-05-09T15:00:56.494Z,22.80
2024-05-09T15:03:29.083Z,23.00
2024-05-09T15:05:56.603Z,23.10
2024-05-09T15:08:27.050Z,23.10
2024-05-09T15:10:54.352Z,22.60
2024-05-09T15:13:24.719Z,22.30
2024-05-09T15:15:52.145Z,22.10
2024-05-09T15:18:22.433Z,22.00
2024-05-09T15:20:52.553Z,22.00
2024-05-09T15:23:22.944Z,22.10
2024-05-09T15:25:50.160Z,22.10
2024-05-09T15:28:20.310Z,21.90
2024-05-09T15:30:48.147Z,21.90
2024-05-09T15:33:18.283Z,21.80
2024-05-09T15:35:47.149Z,21.70
2024-05-09T15:38:20.597Z,21.60
2024-05-09T15:40:47.945Z,21.30
2024-05-09T15:43:18.013Z,21.20
2024-05-09T15:45:45.582Z,21.10
2024-05-09T15:48:15.968Z,21.10
2024-05-09T15:50:43.686Z,21.10
2024-05-09T15:53:14.601Z,21.20
2024-05-09T15:55:44.783Z,21.60
2024-05-09T15:58:15.483Z,22.40
2024-05-09T16:00:44.816Z,21.60
2024-05-09T16:03:16.687Z,21.60
2024-05-09T16:05:45.237Z,21.60
2024-05-09T16:08:15.937Z,21.90
2024-05-09T16:10:47.396Z,22.30
2024-05-09T16:13:19.815Z,22.00
2024-05-09T16:15:47.753Z,22.00
2024-05-09T16:18:18.269Z,22.30
2024-05-09T16:20:48.280Z,22.10
2024-05-09T16:23:19.907Z,21.90
2024-05-09T16:25:51.471Z,21.90
2024-05-09T16:28:22.809Z,21.70
2024-05-09T16:30:50.586Z,21.70
2024-05-09T16:33:23.693Z,21.50
2024-05-09T16:35:51.236Z,21.40
2024-05-09T16:38:21.529Z,21.30
2024-05-09T16:40:51.688Z,21.10
2024-05-09T16:43:21.691Z,21.40
2024-05-09T16:45:49.007Z,21.00
2024-05-09T16:48:19.216Z,20.90
2024-05-09T16:50:49.659Z,20.90
2024-05-09T16:53:19.734Z,21.40
2024-05-09T16:55:47.238Z,20.60
2024-05-09T16:58:20.243Z,20.50
2024-05-09T17:00:47.798Z,20.30
2024-05-09T17:03:18.241Z,20.40
2024-05-09T17:05:47.179Z,20.60
2024-05-09T17:08:19.880Z,20.30
2024-05-09T17:10:49.211Z,21.00
2024-05-09T17:13:22.693Z,20.00
2024-05-09T17:15:52.901Z,19.90
2024-05-09T17:18:20.508Z,19.80
2024-05-09T17:20:51.427Z,19.70
2024-05-09T17:23:18.653Z,19.60
2024-05-09T17:25:48.423Z,19.60
2024-05-09T17:28:18.637Z,19.50
2024-05-09T17:30:49.270Z,19.50
2024-05-09T17:33:16.724Z,19.50
2024-05-09T17:35:50.233Z,19.50
2024-05-09T17:38:17.826Z,19.50
2024-05-09T17:40:47.777Z,19.40
2024-05-09T17:43:15.012Z,19.40
2024-05-09T17:45:47.646Z,19.40
2024-05-09T17:48:17.048Z,19.40
2024-05-09T17:50:46.972Z,19.40
2024-05-09T17:53:14.221Z,19.40
2024-05-09T17:55:44.096Z,19.40
2024-05-09T17:58:12.804Z,19.30
2024-05-09T18:00:43.047Z,19.30
2024-05-09T18:03:13.929Z,19.20
2024-05-09T18:05:45.246Z,19.10
2024-05-09T18:08:13.262Z,19.10
2024-05-09T18:10:43.498Z,19.00
2024-05-09T18:13:11.809Z,18.90
2024-05-09T18:15:42.188Z,18.90
2024-05-09T18:18:10.718Z,18.80
2024-05-09T18:20:45.819Z,18.70
2024-05-09T18:23:16.197Z,18.60
2024-05-09T18:25:48.123Z,18.50
2024-05-09T18:28:16.229Z,18.50
2024-05-09T18:30:46.673Z,18.30
2024-05-09T18:33:14.278Z,18.20
2024-05-09T18:35:48.031Z,18.10
2024-05-09T18:38:15.244Z,18.10
2024-05-09T18:40:48.314Z,18.00
2024-05-09T18:43:16.902Z,17.80
2024-05-09T18:45:47.508Z,17.70
2024-05-09T18:48:15.532Z,17.70
2024-05-09T18:50:48.124Z,17.60
2024-05-09T18:53:16.095Z,17.50
2024-05-09T18:55:45.898Z,17.10
2024-05-09T18:58:13.289Z,17.30
2024-05-09T19:00:45.904Z,17.20
2024-05-09T19:03:16.000Z,17.00
2024-05-09T19:05:48.964Z,16.90
2024-05-09T19:08:16.299Z,16.80
2024-05-09T19:10:47.021Z,16.70
2024-05-09T19:13:14.963Z,16.60
2024-05-09T19:15:45.480Z,16.50
2024-05-09T19:18:13.808Z,16.30
2024-05-09T19:20:44.512Z,16.10
2024-05-09T19:23:14.453Z,16.00
2024-05-09T19:25:44.301Z,15.90
2024-05-09T19:28:11.548Z,15.80
2024-05-09T19:30:42.787Z,15.60
2024-05-09T19:33:12.742Z,15.60
2024-05-09T19:35:44.247Z,15.40
2024-05-09T19:38:14.181Z,15.30
2024-05-09T19:40:44.099Z,15.20
2024-05-09T19:43:11.379Z,15.10
2024-05-09T19:45:41.476Z,15.00
2024-05-09T19:48:09.123Z,15.00
2024-05-09T19:50:43.209Z,14.90
2024-05-09T19:53:14.815Z,14.80
2024-05-09T19:55:45.086Z,14.70
2024-05-09T19:58:12.936Z,14.70
2024-05-09T20:00:44.368Z,14.50
2024-05-09T20:03:13.450Z,14.50
2024-05-09T20:05:45.543Z,14.40
2024-05-09T20:08:17.099Z,14.40
2024-05-09T20:10:47.043Z,14.30
2024-05-09T20:13:14.482Z,14.20
2024-05-09T20:15:44.390Z,14.20
2024-05-09T20:18:12.115Z,14.10
2024-05-09T20:20:44.075Z,14.10
2024-05-09T20:23:15.238Z,14.00
2024-05-09T20:25:45.512Z,14.00
2024-05-09T20:28:12.738Z,13.90
2024-05-09T20:30:42.697Z,13.80
2024-05-09T20:33:10.543Z,13.80
2024-05-09T20:35:42.580Z,13.80
2024-05-09T20:38:09.774Z,13.70
2024-05-09T20:40:43.718Z,13.70
2024-05-09T20:43:11.216Z,13.60
2024-05-09T20:45:41.552Z,13.60
2024-05-09T20:48:09.717Z,13.60
2024-05-09T20:50:42.017Z,13.60
2024-05-09T20:53:11.202Z,13.60
2024-05-09T20:55:45.012Z,13.60
2024-05-09T20:58:14.292Z,13.70
2024-05-09T21:00:45.885Z,16.20
2024-05-09T21:03:17.924Z,13.90
2024-05-09T21:05:49.057Z,13.80
2024-05-09T21:08:16.495Z,13.80
2024-05-09T21:10:49.149Z,13.90
2024-05-09T21:13:16.431Z,13.90
2024-05-09T21:15:48.130Z,13.90
2024-05-09T21:18:15.469Z,13.90
2024-05-09T21:20:47.540Z,13.90
2024-05-09T21:23:15.095Z,13.70
2024-05-09T21:25:46.832Z,13.80
2024-05-09T21:28:16.807Z,13.80
2024-05-09T21:30:50.629Z,13.70
2024-05-09T21:33:19.554Z,13.90
2024-05-09T21:35:55.511Z,14.60
2024-05-09T21:38:22.793Z,13.60
2024-05-09T21:40:52.890Z,13.60
2024-05-09T21:43:22.942Z,13.50
2024-05-09T21:45:52.950Z,13.50
2024-05-09T21:48:20.151Z,13.40
2024-05-09T21:50:49.924Z,13.30
2024-05-09T21:53:17.098Z,13.30
2024-05-09T21:55:46.972Z,13.20
2024-05-09T21:58:14.708Z,13.10
2024-05-09T22:00:47.322Z,13.10
2024-05-09T22:03:15.037Z,13.00
2024-05-09T22:05:45.358Z,12.90
2024-05-09T22:08:12.905Z,12.80
2024-05-09T22:10:43.006Z,12.80
2024-05-09T22:13:10.349Z,12.80
2024-05-09T22:15:42.379Z,12.60
2024-05-09T22:18:12.434Z,12.60
2024-05-09T22:20:45.671Z,12.50
2024-05-09T22:23:14.566Z,12.50
2024-05-09T22:25:44.553Z,12.40
2024-05-09T22:28:14.420Z,12.40
2024-05-09T22:30:46.110Z,12.30
2024-05-09T22:33:16.641Z,12.30
2024-05-09T22:35:47.499Z,12.20
2024-05-09T22:38:14.728Z,12.20
2024-05-09T22:40:48.415Z,12.10
2024-05-09T22:43:19.396Z,12.10
2024-05-09T22:45:50.152Z,12.00
2024-05-09T22:48:20.690Z,11.90
2024-05-09T22:50:50.557Z,11.90
2024-05-09T22:53:19.007Z,11.80
2024-05-09T22:55:48.780Z,11.70
2024-05-09T22:58:16.168Z,11.70
2024-05-09T23:00:46.092Z,11.60
2024-05-09T23:03:15.780Z,11.50
2024-05-09T23:05:48.345Z,11.40
2024-05-09T23:08:15.611Z,11.40
2024-05-09T23:10:45.501Z,11.30
2024-05-09T23:13:12.774Z,11.30
2024-05-09T23:15:42.627Z,11.20
2024-05-09T23:18:10.141Z,11.10
2024-05-09T23:20:40.514Z,11.10
2024-05-09T23:23:11.780Z,11.00
2024-05-09T23:25:42.769Z,10.90
2024-05-09T23:28:10.377Z,10.90
2024-05-09T23:30:41.463Z,10.90
2024-05-09T23:33:10.999Z,10.90
2024-05-09T23:35:41.325Z,10.90
2024-05-09T23:38:11.198Z,10.90
2024-05-09T23:40:42.348Z,10.80
2024-05-09T23:43:11.386Z,10.70
2024-05-09T23:45:42.416Z,10.70
2024-05-09T23:48:10.140Z,10.60
2024-05-09T23:50:40.942Z,10.60
2024-05-09T23:53:11.499Z,10.50
2024-05-09T23:55:41.986Z,10.40
2024-05-09T23:58:09.469Z,10.40
